地図

経路データ

SID SEASON NUMBER BASIN SUBBASIN NAME ISO_TIME NATURE LAT LON WMO_WIND WMO_PRES WMO_AGENCY TRACK_TYPE DIST2LAND LANDFALL IFLAG USA_AGENCY USA_ATCF_ID USA_LAT USA_LON USA_RECORD USA_STATUS USA_WIND USA_PRES USA_SSHS USA_R34_NE USA_R34_SE USA_R34_SW USA_R34_NW USA_R50_NE USA_R50_SE USA_R50_SW USA_R50_NW USA_R64_NE USA_R64_SE USA_R64_SW USA_R64_NW USA_POCI USA_ROCI USA_RMW USA_EYE TOKYO_LAT TOKYO_LON TOKYO_GRADE TOKYO_WIND TOKYO_PRES TOKYO_R50_DIR TOKYO_R50_LONG TOKYO_R50_SHORT TOKYO_R30_DIR TOKYO_R30_LONG TOKYO_R30_SHORT TOKYO_LAND CMA_LAT CMA_LON CMA_CAT CMA_WIND CMA_PRES HKO_LAT HKO_LON HKO_CAT HKO_WIND HKO_PRES NEWDELHI_LAT NEWDELHI_LON NEWDELHI_GRADE NEWDELHI_WIND NEWDELHI_PRES NEWDELHI_CI NEWDELHI_DP NEWDELHI_POCI REUNION_LAT REUNION_LON REUNION_TYPE REUNION_WIND REUNION_PRES REUNION_TNUM REUNION_CI REUNION_RMW REUNION_R34_NE REUNION_R34_SE REUNION_R34_SW REUNION_R34_NW REUNION_R50_NE REUNION_R50_SE REUNION_R50_SW REUNION_R50_NW REUNION_R64_NE REUNION_R64_SE REUNION_R64_SW REUNION_R64_NW BOM_LAT BOM_LON BOM_TYPE BOM_WIND BOM_PRES BOM_TNUM BOM_CI BOM_RMW BOM_R34_NE BOM_R34_SE BOM_R34_SW BOM_R34_NW BOM_R50_NE BOM_R50_SE BOM_R50_SW BOM_R50_NW BOM_R64_NE BOM_R64_SE BOM_R64_SW BOM_R64_NW BOM_ROCI BOM_POCI BOM_EYE BOM_POS_METHOD BOM_PRES_METHOD NADI_LAT NADI_LON NADI_CAT NADI_WIND NADI_PRES WELLINGTON_LAT WELLINGTON_LON WELLINGTON_WIND WELLINGTON_PRES DS824_LAT DS824_LON DS824_STAGE DS824_WIND DS824_PRES TD9636_LAT TD9636_LON TD9636_STAGE TD9636_WIND TD9636_PRES TD9635_LAT TD9635_LON TD9635_WIND TD9635_PRES TD9635_ROCI NEUMANN_LAT NEUMANN_LON NEUMANN_CLASS NEUMANN_WIND NEUMANN_PRES MLC_LAT MLC_LON MLC_CLASS MLC_WIND MLC_PRES USA_GUST BOM_GUST BOM_GUST_PER REUNION_GUST REUNION_GUST_PER USA_SEAHGT USA_SEARAD_NE USA_SEARAD_SE USA_SEARAD_SW USA_SEARAD_NW STORM_SPEED STORM_DIR
1966245N14312 1966 65 NA NA GRETA 1966-09-01 12:00:00 TS 13.7000 -48.4000 25 hurdat_atl main 1057 1052 O_____________ hurdat_atl AL071966 13.7000 -48.4000 TD 25 -1 13 297
1966245N14312 1966 65 NA NA GRETA 1966-09-01 15:00:00 TS 13.9952 -48.9874 main 1059 1055 P_____________ AL071966 13.9952 -48.9874 TD 25 -1 13 297
1966245N14312 1966 65 NA NA GRETA 1966-09-01 18:00:00 TS 14.3000 -49.6000 25 hurdat_atl main 1066 1061 O_____________ hurdat_atl AL071966 14.3000 -49.6000 TD 25 -1 14 297
1966245N14312 1966 65 NA NA GRETA 1966-09-01 21:00:00 TS 14.6151 -50.2374 main 1068 1063 P_____________ AL071966 14.6151 -50.2374 TD 25 -1 13 297
1966245N14312 1966 65 NA NA GRETA 1966-09-02 00:00:00 TS 14.9000 -50.8000 25 1011 hurdat_atl main 1074 1070 O_____________ hurdat_atl AL071966 14.9000 -50.8000 TD 25 1011 -1 10 298
1966245N14312 1966 65 NA NA GRETA 1966-09-02 03:00:00 TS 15.0997 -51.1878 main 1081 1078 P_____________ AL071966 15.0997 -51.1878 TD 27 -1 8 301
1966245N14312 1966 65 NA NA GRETA 1966-09-02 06:00:00 TS 15.3000 -51.5000 30 hurdat_atl main 1093 1090 O_____________ hurdat_atl AL071966 15.3000 -51.5000 TD 30 -1 8 308
1966245N14312 1966 65 NA NA GRETA 1966-09-02 09:00:00 TS 15.6074 -51.8499 main 1117 1115 P_____________ AL071966 15.6074 -51.8499 TD 30 -1 9 312
1966245N14312 1966 65 NA NA GRETA 1966-09-02 12:00:00 TS 15.9000 -52.2000 30 hurdat_atl main 1116 1094 O_____________ hurdat_atl AL071966 15.9000 -52.2000 TD 30 -1 8 305
1966245N14312 1966 65 NA NA GRETA 1966-09-02 15:00:00 TS 16.0799 -52.5426 main 1100 1070 P_____________ AL071966 16.0799 -52.5426 TD 30 -1 7 294
1966245N14312 1966 65 NA NA GRETA 1966-09-02 18:00:00 TS 16.2000 -52.9000 30 hurdat_atl main 1070 1042 O_____________ hurdat_atl AL071966 16.2000 -52.9000 TD 30 -1 8 287
1966245N14312 1966 65 NA NA GRETA 1966-09-02 21:00:00 TS 16.3000 -53.3076 main 1042 1014 P_____________ AL071966 16.3000 -53.3076 TD 30 -1 8 285
1966245N14312 1966 65 NA NA GRETA 1966-09-03 00:00:00 TS 16.4000 -53.7000 30 1010 hurdat_atl main 1014 997 O_____________ hurdat_atl AL071966 16.4000 -53.7000 TD 30 1010 -1 7 290
1966245N14312 1966 65 NA NA GRETA 1966-09-03 03:00:00 TS 16.5424 -54.0076 main 997 987 P_____________ AL071966 16.5424 -54.0076 TD 30 1010 -1 7 298
1966245N14312 1966 65 NA NA GRETA 1966-09-03 06:00:00 TS 16.7000 -54.3000 30 hurdat_atl main 987 971 I_____________ hurdat_atl AL071966 16.7000 -54.3000 TD 30 1011 -1 7 296
1966245N14312 1966 65 NA NA GRETA 1966-09-03 09:00:00 TS 16.8424 -54.6351 main 971 956 P_____________ AL071966 16.8424 -54.6351 TD 30 1012 -1 7 294
1966245N14312 1966 65 NA NA GRETA 1966-09-03 12:00:00 TS 17.0000 -55.0000 30 1013 hurdat_atl main 957 944 O_____________ hurdat_atl AL071966 17.0000 -55.0000 TD 30 1013 -1 8 296
1966245N14312 1966 65 NA NA GRETA 1966-09-03 15:00:00 TS 17.1924 -55.3850 main 945 934 P_____________ AL071966 17.1924 -55.3850 TD 30 -1 9 298
1966245N14312 1966 65 NA NA GRETA 1966-09-03 18:00:00 TS 17.4000 -55.8000 30 hurdat_atl main 936 920 O_____________ hurdat_atl AL071966 17.4000 -55.8000 TD 30 -1 9 295
1966245N14312 1966 65 NA NA GRETA 1966-09-03 21:00:00 TS 17.5851 -56.2651 main 923 915 P_____________ AL071966 17.5851 -56.2651 TD 30 -1 9 295
1966245N14312 1966 65 NA NA GRETA 1966-09-04 00:00:00 TS 17.8000 -56.7000 30 hurdat_atl main 920 908 O_____________ hurdat_atl AL071966 17.8000 -56.7000 TD 30 -1 9 305
1966245N14312 1966 65 NA NA GRETA 1966-09-04 03:00:00 TS 18.0848 -57.0151 main 908 875 P_____________ AL071966 18.0848 -57.0151 TD 30 -1 8 316
1966245N14312 1966 65 NA NA GRETA 1966-09-04 06:00:00 TS 18.4000 -57.3000 30 hurdat_atl main 875 843 O_____________ hurdat_atl AL071966 18.4000 -57.3000 TD 30 -1 8 316
1966245N14312 1966 65 NA NA GRETA 1966-09-04 09:00:00 TS 18.6848 -57.6203 main 844 803 P_____________ AL071966 18.6848 -57.6203 TD 30 -1 9 312
1966245N14312 1966 65 NA NA GRETA 1966-09-04 12:00:00 TS 19.0000 -58.0000 30 1009 hurdat_atl main 803 764 O_____________ hurdat_atl AL071966 19.0000 -58.0000 TD 30 1009 -1 11 311
1966245N14312 1966 65 NA NA GRETA 1966-09-04 15:00:00 TS 19.3775 -58.4701 main 755 710 P_____________ AL071966 19.3775 -58.4701 TD 40 1007 0 12 310
1966245N14312 1966 65 NA NA GRETA 1966-09-04 18:00:00 TS 19.8000 -59.0000 50 hurdat_atl main 710 671 I_____________ hurdat_atl AL071966 19.8000 -59.0000 TS 50 1006 0 14 311
1966245N14312 1966 65 NA NA GRETA 1966-09-04 21:00:00 TS 20.2876 -59.5646 main 664 631 P_____________ AL071966 20.2876 -59.5646 TS 50 1005 0 14 311
1966245N14312 1966 65 NA NA GRETA 1966-09-05 00:00:00 TS 20.7000 -60.1000 50 1004 hurdat_atl main 631 602 O_____________ hurdat_atl AL071966 20.7000 -60.1000 TS 50 1004 0 11 304
1966245N14312 1966 65 NA NA GRETA 1966-09-05 03:00:00 TS 20.8947 -60.5231 main 602 571 P_____________ AL071966 20.8947 -60.5231 TS 47 0 8 292
1966245N14312 1966 65 NA NA GRETA 1966-09-05 06:00:00 TS 21.0000 -60.9000 45 hurdat_atl main 571 541 O_____________ hurdat_atl AL071966 21.0000 -60.9000 TS 45 0 8 288
1966245N14312 1966 65 NA NA GRETA 1966-09-05 09:00:00 TS 21.1349 -61.2927 main 541 521 P_____________ AL071966 21.1349 -61.2927 TS 42 0 8 292
1966245N14312 1966 65 NA NA GRETA 1966-09-05 12:00:00 TS 21.3000 -61.7000 40 hurdat_atl main 521 503 O_____________ hurdat_atl AL071966 21.3000 -61.7000 TS 40 0 9 298
1966245N14312 1966 65 NA NA GRETA 1966-09-05 15:00:00 TS 21.5423 -62.1275 main 503 490 P_____________ AL071966 21.5423 -62.1275 TS 37 0 10 301
1966245N14312 1966 65 NA NA GRETA 1966-09-05 18:00:00 TS 21.8000 -62.6000 35 1007 hurdat_atl main 492 476 O_____________ hurdat_atl AL071966 21.8000 -62.6000 TS 35 1007 0 10 295
1966245N14312 1966 65 NA NA GRETA 1966-09-05 21:00:00 TS 21.9772 -63.1132 main 479 463 P_____________ AL071966 21.9772 -63.1132 TS 35 1008 0 11 291
1966245N14312 1966 65 NA NA GRETA 1966-09-06 00:00:00 TS 22.2000 -63.7000 35 1009 hurdat_atl main 468 464 O_____________ hurdat_atl AL071966 22.2000 -63.7000 TS 35 1009 0 13 297
1966245N14312 1966 65 NA NA GRETA 1966-09-06 03:00:00 TS 22.5773 -64.3624 main 486 483 P_____________ AL071966 22.5773 -64.3624 TS 35 1009 0 15 302
1966245N14312 1966 65 NA NA GRETA 1966-09-06 06:00:00 TS 23.0000 -65.1000 35 1009 hurdat_atl main 517 516 O_____________ hurdat_atl AL071966 23.0000 -65.1000 TS 35 1009 0 16 299
1966245N14312 1966 65 NA NA GRETA 1966-09-06 09:00:00 TS 23.3424 -65.8931 main 547 547 P_____________ AL071966 23.3424 -65.8931 TS 32 1010 -1 16 295
1966245N14312 1966 65 NA NA GRETA 1966-09-06 12:00:00 TS 23.7000 -66.7000 30 1011 hurdat_atl main 560 555 O_____________ hurdat_atl AL071966 23.7000 -66.7000 TD 30 1011 -1 16 299
1966245N14312 1966 65 NA NA GRETA 1966-09-06 15:00:00 TS 24.1270 -67.4580 main 565 565 P_____________ AL071966 24.1270 -67.4580 TD 30 1011 -1 16 303
1966245N14312 1966 65 NA NA GRETA 1966-09-06 18:00:00 TS 24.6000 -68.2000 30 1011 hurdat_atl main 588 588 O_____________ hurdat_atl AL071966 24.6000 -68.2000 TD 30 1011 -1 17 306
1966245N14312 1966 65 NA NA GRETA 1966-09-06 21:00:00 TS 25.1302 -68.9944 main 597 592 P_____________ AL071966 25.1302 -68.9944 TD 30 -1 17 306
1966245N14312 1966 65 NA NA GRETA 1966-09-07 00:00:00 TS 25.6000 -69.7000 30 hurdat_atl main 595 590 O_____________ hurdat_atl AL071966 25.6000 -69.7000 TD 30 -1 13 305
1966245N14312 1966 65 NA NA GRETA 1966-09-07 03:00:00 TS 25.8793 -70.1961 main 597 592 P_____________ AL071966 25.8793 -70.1961 TD 30 -1 10 302
1966245N14312 1966 65 NA NA GRETA 1966-09-07 06:00:00 TS 26.1000 -70.6000 30 hurdat_atl main 599 595 O_____________ hurdat_atl AL071966 26.1000 -70.6000 TD 30 -1 9 300
1966245N14312 1966 65 NA NA GRETA 1966-09-07 09:00:00 TS 26.3402 -71.1025 main 601 601 P_____________ AL071966 26.3402 -71.1025 TD 30 -1 10 307
1966245N14312 1966 65 NA NA GRETA 1966-09-07 12:00:00 TS 26.7000 -71.5000 30 1013 hurdat_atl main 633 633 O_____________ hurdat_atl AL071966 26.7000 -71.5000 TD 30 1013 -1 11 332
1966245N14312 1966 65 NA NA GRETA 1966-09-07 15:00:00 TS 27.2823 -71.6702 main 674 674 P_____________ AL071966 27.2823 -71.6702 TD 27 -1 13 352
1966245N14312 1966 65 NA NA GRETA 1966-09-07 18:00:00 TS 28.0000 -71.7000 25 hurdat_atl main 704 O_____________ hurdat_atl AL071966 28.0000 -71.7000 TD 25 -1 14 0

IBTrACS Databaseについて

本データベースは、米国NOAAが公開する1842年以降の世界の熱帯低気圧のベストトラックデータアーカイブInternational Best Track Archive for Climate Stewardship (IBTrACS)を、ウェブで閲覧しやすい形式に変換したものです。

最終更新日:2021-12-03